sensor_id;sensor_type;location;lat;lon;timestamp;P1;durP1;ratioP1;P2;durP2;ratioP2
5787;SDS011;2920;48.158;12.254;2023-04-03T00:01:15;8.32;;;4.63;;
5787;SDS011;2920;48.158;12.254;2023-04-03T00:03:41;7.85;;;4.80;;
5787;SDS011;2920;48.158;12.254;2023-04-03T00:06:06;6.63;;;4.55;;
5787;SDS011;2920;48.158;12.254;2023-04-03T00:08:33;6.78;;;4.53;;
5787;SDS011;2920;48.158;12.254;2023-04-03T00:11:00;7.13;;;4.50;;
5787;SDS011;2920;48.158;12.254;2023-04-03T00:13:25;6.93;;;4.80;;
5787;SDS011;2920;48.158;12.254;2023-04-03T00:15:51;7.47;;;4.68;;
5787;SDS011;2920;48.158;12.254;2023-04-03T00:18:16;7.10;;;4.32;;
5787;SDS011;2920;48.158;12.254;2023-04-03T00:20:42;7.38;;;4.63;;
5787;SDS011;2920;48.158;12.254;2023-04-03T00:23:07;7.00;;;4.82;;
5787;SDS011;2920;48.158;12.254;2023-04-03T00:25:33;7.28;;;4.50;;
5787;SDS011;2920;48.158;12.254;2023-04-03T00:27:58;7.57;;;5.03;;
5787;SDS011;2920;48.158;12.254;2023-04-03T00:30:23;9.23;;;4.88;;
5787;SDS011;2920;48.158;12.254;2023-04-03T00:32:49;8.20;;;4.55;;
5787;SDS011;2920;48.158;12.254;2023-04-03T00:35:15;9.05;;;4.53;;
5787;SDS011;2920;48.158;12.254;2023-04-03T00:37:43;7.07;;;4.70;;
5787;SDS011;2920;48.158;12.254;2023-04-03T00:40:09;6.72;;;4.88;;
5787;SDS011;2920;48.158;12.254;2023-04-03T00:42:36;7.40;;;5.60;;
5787;SDS011;2920;48.158;12.254;2023-04-03T00:47:27;7.40;;;4.80;;
5787;SDS011;2920;48.158;12.254;2023-04-03T00:49:53;6.63;;;4.28;;
5787;SDS011;2920;48.158;12.254;2023-04-03T00:52:19;6.65;;;4.13;;
5787;SDS011;2920;48.158;12.254;2023-04-03T00:54:46;6.32;;;4.30;;
5787;SDS011;2920;48.158;12.254;2023-04-03T00:57:12;7.82;;;4.50;;
5787;SDS011;2920;48.158;12.254;2023-04-03T00:59:41;6.68;;;4.15;;
5787;SDS011;2920;48.158;12.254;2023-04-03T01:02:09;4.82;;;3.75;;
5787;SDS011;2920;48.158;12.254;2023-04-03T01:04:38;8.52;;;4.47;;
5787;SDS011;2920;48.158;12.254;2023-04-03T01:07:10;6.32;;;4.32;;
5787;SDS011;2920;48.158;12.254;2023-04-03T01:09:57;7.53;;;4.20;;
5787;SDS011;2920;48.158;12.254;2023-04-03T01:12:28;6.35;;;4.25;;
5787;SDS011;2920;48.158;12.254;2023-04-03T01:15:03;6.05;;;4.15;;
5787;SDS011;2920;48.158;12.254;2023-04-03T01:17:38;5.10;;;3.28;;
5787;SDS011;2920;48.158;12.254;2023-04-03T01:25:22;5.72;;;4.15;;
5787;SDS011;2920;48.158;12.254;2023-04-03T01:27:47;6.07;;;3.67;;
5787;SDS011;2920;48.158;12.254;2023-04-03T01:30:12;6.40;;;3.88;;
5787;SDS011;2920;48.158;12.254;2023-04-03T01:32:39;5.53;;;3.47;;
5787;SDS011;2920;48.158;12.254;2023-04-03T01:35:06;5.43;;;3.90;;
5787;SDS011;2920;48.158;12.254;2023-04-03T01:37:33;5.63;;;3.90;;
5787;SDS011;2920;48.158;12.254;2023-04-03T01:39:58;6.28;;;4.07;;
5787;SDS011;2920;48.158;12.254;2023-04-03T01:42:23;5.50;;;3.78;;
5787;SDS011;2920;48.158;12.254;2023-04-03T01:44:48;4.90;;;3.63;;
5787;SDS011;2920;48.158;12.254;2023-04-03T01:47:14;5.60;;;4.03;;
5787;SDS011;2920;48.158;12.254;2023-04-03T01:49:39;7.47;;;3.50;;
5787;SDS011;2920;48.158;12.254;2023-04-03T01:52:04;6.78;;;3.60;;
5787;SDS011;2920;48.158;12.254;2023-04-03T01:54:30;4.50;;;3.35;;
5787;SDS011;2920;48.158;12.254;2023-04-03T01:56:55;6.85;;;2.97;;
5787;SDS011;2920;48.158;12.254;2023-04-03T01:59:20;4.82;;;3.60;;
5787;SDS011;2920;48.158;12.254;2023-04-03T02:01:45;5.35;;;3.63;;
5787;SDS011;2920;48.158;12.254;2023-04-03T02:04:11;5.05;;;3.70;;
5787;SDS011;2920;48.158;12.254;2023-04-03T02:06:37;4.78;;;3.53;;
5787;SDS011;2920;48.158;12.254;2023-04-03T02:09:03;5.28;;;3.50;;
5787;SDS011;2920;48.158;12.254;2023-04-03T02:11:29;6.65;;;3.38;;
5787;SDS011;2920;48.158;12.254;2023-04-03T02:13:54;3.50;;;2.75;;
5787;SDS011;2920;48.158;12.254;2023-04-03T02:16:19;5.32;;;4.00;;
5787;SDS011;2920;48.158;12.254;2023-04-03T02:18:45;7.30;;;3.60;;
5787;SDS011;2920;48.158;12.254;2023-04-03T02:21:10;5.03;;;3.53;;
5787;SDS011;2920;48.158;12.254;2023-04-03T02:23:35;6.15;;;3.90;;
5787;SDS011;2920;48.158;12.254;2023-04-03T02:26:03;4.80;;;3.47;;
5787;SDS011;2920;48.158;12.254;2023-04-03T02:28:35;5.40;;;3.75;;
5787;SDS011;2920;48.158;12.254;2023-04-03T02:31:00;6.13;;;3.60;;
5787;SDS011;2920;48.158;12.254;2023-04-03T02:33:26;5.53;;;3.88;;
5787;SDS011;2920;48.158;12.254;2023-04-03T02:35:55;5.82;;;3.47;;
5787;SDS011;2920;48.158;12.254;2023-04-03T02:38:21;5.35;;;3.47;;
5787;SDS011;2920;48.158;12.254;2023-04-03T02:40:46;6.30;;;3.60;;
5787;SDS011;2920;48.158;12.254;2023-04-03T02:43:12;5.45;;;3.15;;
5787;SDS011;2920;48.158;12.254;2023-04-03T02:45:37;5.35;;;3.58;;
5787;SDS011;2920;48.158;12.254;2023-04-03T02:48:03;4.85;;;3.65;;
5787;SDS011;2920;48.158;12.254;2023-04-03T02:50:28;6.68;;;3.38;;
5787;SDS011;2920;48.158;12.254;2023-04-03T02:52:54;4.93;;;3.25;;
5787;SDS011;2920;48.158;12.254;2023-04-03T02:55:19;4.90;;;2.88;;
5787;SDS011;2920;48.158;12.254;2023-04-03T02:57:44;4.95;;;2.78;;
5787;SDS011;2920;48.158;12.254;2023-04-03T03:00:10;5.60;;;3.50;;
5787;SDS011;2920;48.158;12.254;2023-04-03T03:02:35;4.75;;;3.08;;
5787;SDS011;2920;48.158;12.254;2023-04-03T03:05:01;4.22;;;3.03;;
5787;SDS011;2920;48.158;12.254;2023-04-03T03:07:26;6.45;;;3.05;;
5787;SDS011;2920;48.158;12.254;2023-04-03T03:09:52;5.78;;;3.33;;
5787;SDS011;2920;48.158;12.254;2023-04-03T03:12:17;6.70;;;3.30;;
5787;SDS011;2920;48.158;12.254;2023-04-03T03:14:46;3.67;;;2.83;;
5787;SDS011;2920;48.158;12.254;2023-04-03T03:17:12;6.75;;;3.17;;
5787;SDS011;2920;48.158;12.254;2023-04-03T03:19:38;5.63;;;2.88;;
5787;SDS011;2920;48.158;12.254;2023-04-03T03:22:03;5.20;;;3.60;;
5787;SDS011;2920;48.158;12.254;2023-04-03T03:24:28;2.90;;;2.60;;
5787;SDS011;2920;48.158;12.254;2023-04-03T03:26:54;4.82;;;3.35;;
5787;SDS011;2920;48.158;12.254;2023-04-03T03:29:19;5.10;;;3.13;;
5787;SDS011;2920;48.158;12.254;2023-04-03T03:31:45;6.05;;;3.17;;
5787;SDS011;2920;48.158;12.254;2023-04-03T03:34:10;5.03;;;3.13;;
5787;SDS011;2920;48.158;12.254;2023-04-03T03:36:35;3.75;;;2.50;;
5787;SDS011;2920;48.158;12.254;2023-04-03T03:39:01;4.80;;;3.22;;
5787;SDS011;2920;48.158;12.254;2023-04-03T03:41:26;3.83;;;2.65;;
5787;SDS011;2920;48.158;12.254;2023-04-03T03:43:51;5.45;;;3.33;;
5787;SDS011;2920;48.158;12.254;2023-04-03T03:46:17;5.05;;;3.40;;
5787;SDS011;2920;48.158;12.254;2023-04-03T03:48:42;3.83;;;3.40;;
5787;SDS011;2920;48.158;12.254;2023-04-03T03:51:07;4.10;;;2.97;;
5787;SDS011;2920;48.158;12.254;2023-04-03T03:53:33;4.40;;;2.97;;
5787;SDS011;2920;48.158;12.254;2023-04-03T03:55:58;4.57;;;2.95;;
5787;SDS011;2920;48.158;12.254;2023-04-03T03:58:23;5.10;;;3.10;;
5787;SDS011;2920;48.158;12.254;2023-04-03T04:00:49;5.38;;;3.53;;
5787;SDS011;2920;48.158;12.254;2023-04-03T04:03:14;7.10;;;3.30;;
5787;SDS011;2920;48.158;12.254;2023-04-03T04:05:39;4.18;;;3.05;;
5787;SDS011;2920;48.158;12.254;2023-04-03T04:08:05;4.75;;;2.92;;
5787;SDS011;2920;48.158;12.254;2023-04-03T04:10:30;6.18;;;2.90;;
5787;SDS011;2920;48.158;12.254;2023-04-03T04:12:55;6.88;;;3.85;;
5787;SDS011;2920;48.158;12.254;2023-04-03T04:15:21;5.13;;;3.60;;
5787;SDS011;2920;48.158;12.254;2023-04-03T04:17:47;6.45;;;3.50;;
5787;SDS011;2920;48.158;12.254;2023-04-03T04:20:12;4.35;;;3.30;;
5787;SDS011;2920;48.158;12.254;2023-04-03T04:22:37;5.10;;;3.63;;
5787;SDS011;2920;48.158;12.254;2023-04-03T04:25:04;6.40;;;3.05;;
5787;SDS011;2920;48.158;12.254;2023-04-03T04:27:29;4.93;;;3.30;;
5787;SDS011;2920;48.158;12.254;2023-04-03T04:29:55;6.43;;;3.45;;
5787;SDS011;2920;48.158;12.254;2023-04-03T04:32:20;4.35;;;3.20;;
5787;SDS011;2920;48.158;12.254;2023-04-03T04:34:45;5.60;;;3.28;;
5787;SDS011;2920;48.158;12.254;2023-04-03T04:37:10;3.83;;;3.22;;
5787;SDS011;2920;48.158;12.254;2023-04-03T04:39:36;6.80;;;3.83;;
5787;SDS011;2920;48.158;12.254;2023-04-03T04:42:01;5.15;;;3.40;;
5787;SDS011;2920;48.158;12.254;2023-04-03T04:44:26;6.50;;;4.15;;
5787;SDS011;2920;48.158;12.254;2023-04-03T04:46:52;5.05;;;3.25;;
5787;SDS011;2920;48.158;12.254;2023-04-03T04:49:17;7.03;;;3.42;;
5787;SDS011;2920;48.158;12.254;2023-04-03T04:51:42;4.40;;;3.00;;
5787;SDS011;2920;48.158;12.254;2023-04-03T04:54:08;6.22;;;3.65;;
5787;SDS011;2920;48.158;12.254;2023-04-03T04:56:33;4.85;;;3.50;;
5787;SDS011;2920;48.158;12.254;2023-04-03T04:58:58;4.68;;;3.13;;
5787;SDS011;2920;48.158;12.254;2023-04-03T05:01:24;4.25;;;3.30;;
5787;SDS011;2920;48.158;12.254;2023-04-03T05:03:49;4.30;;;2.90;;
5787;SDS011;2920;48.158;12.254;2023-04-03T05:06:15;4.65;;;3.40;;
5787;SDS011;2920;48.158;12.254;2023-04-03T05:08:40;6.00;;;3.30;;
5787;SDS011;2920;48.158;12.254;2023-04-03T05:11:05;4.70;;;3.15;;
5787;SDS011;2920;48.158;12.254;2023-04-03T05:13:30;6.60;;;3.58;;
5787;SDS011;2920;48.158;12.254;2023-04-03T05:15:56;5.82;;;3.70;;
5787;SDS011;2920;48.158;12.254;2023-04-03T05:18:21;7.90;;;3.45;;
5787;SDS011;2920;48.158;12.254;2023-04-03T05:20:48;4.78;;;3.17;;
5787;SDS011;2920;48.158;12.254;2023-04-03T05:23:14;5.72;;;3.05;;
5787;SDS011;2920;48.158;12.254;2023-04-03T05:25:39;4.47;;;3.25;;
5787;SDS011;2920;48.158;12.254;2023-04-03T05:28:05;6.95;;;3.55;;
5787;SDS011;2920;48.158;12.254;2023-04-03T05:30:31;7.30;;;3.10;;
5787;SDS011;2920;48.158;12.254;2023-04-03T05:32:56;6.65;;;4.00;;
5787;SDS011;2920;48.158;12.254;2023-04-03T05:35:21;5.45;;;3.47;;
5787;SDS011;2920;48.158;12.254;2023-04-03T05:37:47;6.57;;;3.33;;
5787;SDS011;2920;48.158;12.254;2023-04-03T05:40:12;4.93;;;3.25;;
5787;SDS011;2920;48.158;12.254;2023-04-03T05:42:37;4.35;;;2.95;;
5787;SDS011;2920;48.158;12.254;2023-04-03T05:45:03;5.43;;;3.35;;
5787;SDS011;2920;48.158;12.254;2023-04-03T05:47:29;5.38;;;3.22;;
5787;SDS011;2920;48.158;12.254;2023-04-03T05:49:55;6.32;;;3.53;;
5787;SDS011;2920;48.158;12.254;2023-04-03T05:52:25;4.30;;;2.95;;
5787;SDS011;2920;48.158;12.254;2023-04-03T05:54:52;4.50;;;3.05;;
5787;SDS011;2920;48.158;12.254;2023-04-03T05:57:18;6.72;;;3.97;;
5787;SDS011;2920;48.158;12.254;2023-04-03T05:59:44;4.22;;;3.10;;
5787;SDS011;2920;48.158;12.254;2023-04-03T06:02:11;5.88;;;3.60;;
5787;SDS011;2920;48.158;12.254;2023-04-03T06:04:37;8.43;;;3.97;;
5787;SDS011;2920;48.158;12.254;2023-04-03T06:07:03;8.23;;;4.53;;
5787;SDS011;2920;48.158;12.254;2023-04-03T06:09:28;7.00;;;4.25;;
5787;SDS011;2920;48.158;12.254;2023-04-03T06:11:54;7.40;;;4.18;;
5787;SDS011;2920;48.158;12.254;2023-04-03T06:14:19;6.45;;;3.45;;
5787;SDS011;2920;48.158;12.254;2023-04-03T06:16:45;7.57;;;3.60;;
5787;SDS011;2920;48.158;12.254;2023-04-03T06:19:11;6.70;;;3.20;;
5787;SDS011;2920;48.158;12.254;2023-04-03T06:21:37;7.63;;;3.45;;
5787;SDS011;2920;48.158;12.254;2023-04-03T06:24:02;4.38;;;3.03;;
5787;SDS011;2920;48.158;12.254;2023-04-03T06:26:28;4.22;;;3.10;;
5787;SDS011;2920;48.158;12.254;2023-04-03T06:28:54;4.85;;;3.25;;
5787;SDS011;2920;48.158;12.254;2023-04-03T06:31:19;4.47;;;3.03;;
5787;SDS011;2920;48.158;12.254;2023-04-03T06:33:44;5.80;;;3.00;;
5787;SDS011;2920;48.158;12.254;2023-04-03T06:36:10;5.65;;;3.28;;
5787;SDS011;2920;48.158;12.254;2023-04-03T06:38:37;4.70;;;3.13;;
5787;SDS011;2920;48.158;12.254;2023-04-03T06:41:02;3.15;;;2.60;;
5787;SDS011;2920;48.158;12.254;2023-04-03T06:43:27;6.07;;;3.15;;
5787;SDS011;2920;48.158;12.254;2023-04-03T06:45:53;5.07;;;3.00;;
5787;SDS011;2920;48.158;12.254;2023-04-03T06:48:18;6.10;;;3.42;;
5787;SDS011;2920;48.158;12.254;2023-04-03T06:50:43;4.38;;;2.90;;
5787;SDS011;2920;48.158;12.254;2023-04-03T06:53:09;5.80;;;3.35;;
5787;SDS011;2920;48.158;12.254;2023-04-03T06:55:37;4.68;;;3.13;;
5787;SDS011;2920;48.158;12.254;2023-04-03T06:58:02;4.53;;;2.78;;
5787;SDS011;2920;48.158;12.254;2023-04-03T07:00:28;4.85;;;3.03;;
5787;SDS011;2920;48.158;12.254;2023-04-03T07:02:54;7.10;;;3.30;;
5787;SDS011;2920;48.158;12.254;2023-04-03T07:05:21;4.75;;;2.67;;
5787;SDS011;2920;48.158;12.254;2023-04-03T07:07:46;5.63;;;3.20;;
5787;SDS011;2920;48.158;12.254;2023-04-03T07:10:12;4.40;;;2.88;;
5787;SDS011;2920;48.158;12.254;2023-04-03T07:12:37;4.78;;;3.30;;
5787;SDS011;2920;48.158;12.254;2023-04-03T07:15:03;6.43;;;2.90;;
5787;SDS011;2920;48.158;12.254;2023-04-03T07:17:30;5.38;;;2.95;;
5787;SDS011;2920;48.158;12.254;2023-04-03T07:19:55;4.38;;;2.63;;
5787;SDS011;2920;48.158;12.254;2023-04-03T07:22:20;7.75;;;3.50;;
5787;SDS011;2920;48.158;12.254;2023-04-03T07:24:46;5.47;;;3.50;;
5787;SDS011;2920;48.158;12.254;2023-04-03T07:27:11;3.75;;;3.08;;
5787;SDS011;2920;48.158;12.254;2023-04-03T07:29:37;6.47;;;3.10;;
5787;SDS011;2920;48.158;12.254;2023-04-03T07:32:03;7.15;;;3.22;;
5787;SDS011;2920;48.158;12.254;2023-04-03T07:34:30;4.40;;;3.00;;
5787;SDS011;2920;48.158;12.254;2023-04-03T07:36:56;6.28;;;3.58;;
5787;SDS011;2920;48.158;12.254;2023-04-03T07:39:21;7.05;;;3.58;;
5787;SDS011;2920;48.158;12.254;2023-04-03T07:41:46;5.20;;;3.33;;
5787;SDS011;2920;48.158;12.254;2023-04-03T07:44:12;4.82;;;3.30;;
5787;SDS011;2920;48.158;12.254;2023-04-03T07:46:37;5.72;;;3.38;;
5787;SDS011;2920;48.158;12.254;2023-04-03T07:49:03;5.53;;;2.80;;
5787;SDS011;2920;48.158;12.254;2023-04-03T07:51:28;7.05;;;3.60;;
5787;SDS011;2920;48.158;12.254;2023-04-03T07:53:54;5.55;;;3.35;;
5787;SDS011;2920;48.158;12.254;2023-04-03T07:56:20;6.93;;;3.60;;
5787;SDS011;2920;48.158;12.254;2023-04-03T07:58:45;4.57;;;2.92;;
5787;SDS011;2920;48.158;12.254;2023-04-03T08:01:11;5.20;;;3.05;;
5787;SDS011;2920;48.158;12.254;2023-04-03T08:03:37;5.28;;;3.58;;
5787;SDS011;2920;48.158;12.254;2023-04-03T08:06:04;4.78;;;3.30;;
5787;SDS011;2920;48.158;12.254;2023-04-03T08:08:30;7.72;;;3.83;;
5787;SDS011;2920;48.158;12.254;2023-04-03T08:10:57;6.28;;;3.70;;
5787;SDS011;2920;48.158;12.254;2023-04-03T08:13:23;6.03;;;3.50;;
5787;SDS011;2920;48.158;12.254;2023-04-03T08:15:48;3.95;;;2.90;;
5787;SDS011;2920;48.158;12.254;2023-04-03T08:18:14;6.65;;;3.83;;
5787;SDS011;2920;48.158;12.254;2023-04-03T08:20:41;6.03;;;2.97;;
5787;SDS011;2920;48.158;12.254;2023-04-03T08:23:06;5.93;;;3.63;;
5787;SDS011;2920;48.158;12.254;2023-04-03T08:25:33;5.75;;;3.28;;
5787;SDS011;2920;48.158;12.254;2023-04-03T08:27:59;5.20;;;3.50;;
5787;SDS011;2920;48.158;12.254;2023-04-03T08:30:24;5.15;;;3.30;;
5787;SDS011;2920;48.158;12.254;2023-04-03T08:32:50;5.38;;;3.15;;
5787;SDS011;2920;48.158;12.254;2023-04-03T08:35:15;5.20;;;3.08;;
5787;SDS011;2920;48.158;12.254;2023-04-03T08:37:40;6.43;;;3.67;;
5787;SDS011;2920;48.158;12.254;2023-04-03T08:40:07;7.25;;;3.58;;
5787;SDS011;2920;48.158;12.254;2023-04-03T08:42:40;5.55;;;3.03;;
5787;SDS011;2920;48.158;12.254;2023-04-03T08:50:13;5.28;;;3.38;;
5787;SDS011;2920;48.158;12.254;2023-04-03T08:58:01;5.85;;;3.80;;
5787;SDS011;2920;48.158;12.254;2023-04-03T09:00:30;6.00;;;3.65;;
5787;SDS011;2920;48.158;12.254;2023-04-03T09:03:00;4.13;;;3.20;;
5787;SDS011;2920;48.158;12.254;2023-04-03T09:05:42;5.82;;;3.40;;
5787;SDS011;2920;48.158;12.254;2023-04-03T09:08:24;4.00;;;3.00;;
5787;SDS011;2920;48.158;12.254;2023-04-03T09:14:01;7.65;;;3.00;;
5787;SDS011;2920;48.158;12.254;2023-04-03T09:21:41;4.10;;;3.25;;
5787;SDS011;2920;48.158;12.254;2023-04-03T09:24:07;7.18;;;3.85;;
5787;SDS011;2920;48.158;12.254;2023-04-03T09:26:36;5.28;;;3.20;;
5787;SDS011;2920;48.158;12.254;2023-04-03T09:29:06;3.90;;;2.92;;
5787;SDS011;2920;48.158;12.254;2023-04-03T09:34:19;6.63;;;3.78;;
5787;SDS011;2920;48.158;12.254;2023-04-03T09:36:49;5.30;;;3.17;;
5787;SDS011;2920;48.158;12.254;2023-04-03T09:39:20;5.97;;;3.33;;
5787;SDS011;2920;48.158;12.254;2023-04-03T09:44:22;4.72;;;3.13;;
5787;SDS011;2920;48.158;12.254;2023-04-03T09:46:50;6.63;;;3.50;;
5787;SDS011;2920;48.158;12.254;2023-04-03T09:49:15;4.57;;;3.30;;
5787;SDS011;2920;48.158;12.254;2023-04-03T09:51:41;4.85;;;3.13;;
5787;SDS011;2920;48.158;12.254;2023-04-03T09:57:00;5.10;;;3.55;;
5787;SDS011;2920;48.158;12.254;2023-04-03T09:59:29;4.10;;;3.20;;
5787;SDS011;2920;48.158;12.254;2023-04-03T10:02:00;7.35;;;3.60;;
5787;SDS011;2920;48.158;12.254;2023-04-03T10:04:39;5.65;;;3.10;;
5787;SDS011;2920;48.158;12.254;2023-04-03T10:07:25;5.68;;;3.55;;
5787;SDS011;2920;48.158;12.254;2023-04-03T10:09:59;4.35;;;3.47;;
5787;SDS011;2920;48.158;12.254;2023-04-03T10:12:27;5.68;;;3.33;;
5787;SDS011;2920;48.158;12.254;2023-04-03T10:30:29;5.15;;;3.88;;
5787;SDS011;2920;48.158;12.254;2023-04-03T10:46:50;4.47;;;2.92;;
5787;SDS011;2920;48.158;12.254;2023-04-03T10:52:28;5.05;;;2.90;;
5787;SDS011;2920;48.158;12.254;2023-04-03T10:55:18;6.28;;;3.13;;
5787;SDS011;2920;48.158;12.254;2023-04-03T10:57:47;5.00;;;3.17;;
5787;SDS011;2920;48.158;12.254;2023-04-03T11:00:15;3.78;;;2.70;;
5787;SDS011;2920;48.158;12.254;2023-04-03T11:05:31;4.25;;;2.70;;
5787;SDS011;2920;48.158;12.254;2023-04-03T11:08:02;5.70;;;3.60;;
5787;SDS011;2920;48.158;12.254;2023-04-03T11:13:17;3.72;;;2.38;;
5787;SDS011;2920;48.158;12.254;2023-04-03T11:15:44;6.88;;;3.20;;
5787;SDS011;2920;48.158;12.254;2023-04-03T11:18:22;3.85;;;2.88;;
5787;SDS011;2920;48.158;12.254;2023-04-03T11:21:26;4.15;;;2.55;;
5787;SDS011;2920;48.158;12.254;2023-04-03T11:23:46;3.40;;;2.38;;
5787;SDS011;2920;48.158;12.254;2023-04-03T11:26:13;2.67;;;2.10;;
5787;SDS011;2920;48.158;12.254;2023-04-03T11:28:40;5.72;;;2.40;;
5787;SDS011;2920;48.158;12.254;2023-04-03T11:36:59;9.00;;;4.13;;
5787;SDS011;2920;48.158;12.254;2023-04-03T11:39:33;8.05;;;3.80;;
5787;SDS011;2920;48.158;12.254;2023-04-03T11:42:13;5.78;;;2.97;;
5787;SDS011;2920;48.158;12.254;2023-04-03T11:44:42;10.48;;;4.05;;
5787;SDS011;2920;48.158;12.254;2023-04-03T11:47:11;6.28;;;3.55;;
5787;SDS011;2920;48.158;12.254;2023-04-03T11:49:57;17.63;;;5.60;;
5787;SDS011;2920;48.158;12.254;2023-04-03T12:05:54;5.78;;;2.45;;
5787;SDS011;2920;48.158;12.254;2023-04-03T12:13:36;4.38;;;2.45;;
5787;SDS011;2920;48.158;12.254;2023-04-03T12:18:58;5.55;;;2.72;;
5787;SDS011;2920;48.158;12.254;2023-04-03T12:26:40;2.38;;;1.80;;
5787;SDS011;2920;48.158;12.254;2023-04-03T12:29:12;2.92;;;2.33;;
5787;SDS011;2920;48.158;12.254;2023-04-03T12:31:50;3.60;;;1.90;;
5787;SDS011;2920;48.158;12.254;2023-04-03T12:36:58;3.33;;;1.90;;
5787;SDS011;2920;48.158;12.254;2023-04-03T12:44:44;5.43;;;2.20;;
5787;SDS011;2920;48.158;12.254;2023-04-03T12:47:23;2.42;;;1.67;;
5787;SDS011;2920;48.158;12.254;2023-04-03T12:52:25;2.92;;;1.90;;
5787;SDS011;2920;48.158;12.254;2023-04-03T12:54:53;3.10;;;1.63;;
5787;SDS011;2920;48.158;12.254;2023-04-03T12:57:25;6.10;;;2.90;;
5787;SDS011;2920;48.158;12.254;2023-04-03T12:59:52;3.45;;;1.63;;
5787;SDS011;2920;48.158;12.254;2023-04-03T13:02:28;3.72;;;1.95;;
5787;SDS011;2920;48.158;12.254;2023-04-03T13:04:56;3.63;;;1.77;;
5787;SDS011;2920;48.158;12.254;2023-04-03T13:09:56;4.20;;;1.50;;
5787;SDS011;2920;48.158;12.254;2023-04-03T13:12:25;3.55;;;1.65;;
5787;SDS011;2920;48.158;12.254;2023-04-03T13:14:52;3.78;;;1.42;;
5787;SDS011;2920;48.158;12.254;2023-04-03T13:17:18;2.35;;;1.30;;
5787;SDS011;2920;48.158;12.254;2023-04-03T13:19:44;3.53;;;1.50;;
5787;SDS011;2920;48.158;12.254;2023-04-03T13:22:24;2.37;;;1.63;;
5787;SDS011;2920;48.158;12.254;2023-04-03T13:24:52;4.85;;;2.28;;
5787;SDS011;2920;48.158;12.254;2023-04-03T13:27:18;8.05;;;2.33;;
5787;SDS011;2920;48.158;12.254;2023-04-03T13:29:48;2.40;;;1.60;;
5787;SDS011;2920;48.158;12.254;2023-04-03T13:32:21;4.10;;;1.30;;
5787;SDS011;2920;48.158;12.254;2023-04-03T13:34:49;3.33;;;1.45;;
5787;SDS011;2920;48.158;12.254;2023-04-03T13:37:23;5.35;;;1.40;;
5787;SDS011;2920;48.158;12.254;2023-04-03T13:42:31;4.15;;;1.40;;
5787;SDS011;2920;48.158;12.254;2023-04-03T13:47:53;1.92;;;1.17;;
5787;SDS011;2920;48.158;12.254;2023-04-03T13:51:42;3.42;;;1.20;;
5787;SDS011;2920;48.158;12.254;2023-04-03T13:53:41;2.10;;;1.50;;
5787;SDS011;2920;48.158;12.254;2023-04-03T13:56:14;4.95;;;1.33;;
5787;SDS011;2920;48.158;12.254;2023-04-03T13:58:52;2.92;;;1.50;;
5787;SDS011;2920;48.158;12.254;2023-04-03T14:01:20;2.78;;;1.30;;
5787;SDS011;2920;48.158;12.254;2023-04-03T14:03:57;3.00;;;1.55;;
5787;SDS011;2920;48.158;12.254;2023-04-03T14:06:24;1.73;;;1.05;;
5787;SDS011;2920;48.158;12.254;2023-04-03T14:08:50;2.15;;;1.02;;
5787;SDS011;2920;48.158;12.254;2023-04-03T14:11:21;1.73;;;1.48;;
5787;SDS011;2920;48.158;12.254;2023-04-03T14:13:49;1.92;;;1.30;;
5787;SDS011;2920;48.158;12.254;2023-04-03T14:16:16;7.43;;;1.20;;
5787;SDS011;2920;48.158;12.254;2023-04-03T14:18:44;1.52;;;1.30;;
5787;SDS011;2920;48.158;12.254;2023-04-03T14:21:11;2.63;;;1.33;;
5787;SDS011;2920;48.158;12.254;2023-04-03T14:23:37;2.13;;;1.27;;
5787;SDS011;2920;48.158;12.254;2023-04-03T14:26:04;2.03;;;1.48;;
5787;SDS011;2920;48.158;12.254;2023-04-03T14:30:58;2.28;;;1.13;;
5787;SDS011;2920;48.158;12.254;2023-04-03T14:33:23;2.75;;;1.10;;
5787;SDS011;2920;48.158;12.254;2023-04-03T14:35:51;1.88;;;1.10;;
5787;SDS011;2920;48.158;12.254;2023-04-03T14:38:24;3.35;;;1.38;;
5787;SDS011;2920;48.158;12.254;2023-04-03T14:40:50;2.88;;;1.23;;
5787;SDS011;2920;48.158;12.254;2023-04-03T14:43:16;2.88;;;1.30;;
5787;SDS011;2920;48.158;12.254;2023-04-03T14:45:42;1.38;;;1.17;;
5787;SDS011;2920;48.158;12.254;2023-04-03T14:48:09;2.45;;;1.33;;
5787;SDS011;2920;48.158;12.254;2023-04-03T14:50:41;1.80;;;1.15;;
5787;SDS011;2920;48.158;12.254;2023-04-03T14:53:06;2.42;;;1.38;;
5787;SDS011;2920;48.158;12.254;2023-04-03T14:55:32;1.77;;;0.95;;
5787;SDS011;2920;48.158;12.254;2023-04-03T14:57:57;3.10;;;1.48;;
5787;SDS011;2920;48.158;12.254;2023-04-03T15:00:23;3.88;;;1.10;;
5787;SDS011;2920;48.158;12.254;2023-04-03T15:02:48;2.25;;;1.17;;
5787;SDS011;2920;48.158;12.254;2023-04-03T15:05:14;4.13;;;1.48;;
5787;SDS011;2920;48.158;12.254;2023-04-03T15:07:45;2.75;;;1.25;;
5787;SDS011;2920;48.158;12.254;2023-04-03T15:10:15;2.15;;;1.58;;
5787;SDS011;2920;48.158;12.254;2023-04-03T15:12:51;2.75;;;0.90;;
5787;SDS011;2920;48.158;12.254;2023-04-03T15:15:18;1.52;;;1.23;;
5787;SDS011;2920;48.158;12.254;2023-04-03T15:17:45;6.25;;;1.88;;
5787;SDS011;2920;48.158;12.254;2023-04-03T15:20:16;2.17;;;1.00;;
5787;SDS011;2920;48.158;12.254;2023-04-03T15:22:43;2.47;;;1.40;;
5787;SDS011;2920;48.158;12.254;2023-04-03T15:25:08;2.78;;;1.55;;
5787;SDS011;2920;48.158;12.254;2023-04-03T15:27:35;1.33;;;1.10;;
5787;SDS011;2920;48.158;12.254;2023-04-03T15:30:00;2.10;;;1.30;;
5787;SDS011;2920;48.158;12.254;2023-04-03T15:32:26;1.65;;;1.20;;
5787;SDS011;2920;48.158;12.254;2023-04-03T15:34:51;4.22;;;1.60;;
5787;SDS011;2920;48.158;12.254;2023-04-03T15:37:16;4.22;;;1.42;;
5787;SDS011;2920;48.158;12.254;2023-04-03T15:39:42;2.58;;;1.00;;
5787;SDS011;2920;48.158;12.254;2023-04-03T15:42:07;2.65;;;1.13;;
5787;SDS011;2920;48.158;12.254;2023-04-03T15:44:35;3.53;;;1.40;;
5787;SDS011;2920;48.158;12.254;2023-04-03T15:47:01;2.75;;;1.20;;
5787;SDS011;2920;48.158;12.254;2023-04-03T15:49:27;3.65;;;1.52;;
5787;SDS011;2920;48.158;12.254;2023-04-03T15:51:52;4.25;;;1.70;;
5787;SDS011;2920;48.158;12.254;2023-04-03T15:54:18;4.57;;;2.33;;
5787;SDS011;2920;48.158;12.254;2023-04-03T15:56:43;2.75;;;1.20;;
5787;SDS011;2920;48.158;12.254;2023-04-03T15:59:10;3.58;;;1.77;;
5787;SDS011;2920;48.158;12.254;2023-04-03T16:01:36;3.90;;;2.55;;
5787;SDS011;2920;48.158;12.254;2023-04-03T16:04:01;3.53;;;2.45;;
5787;SDS011;2920;48.158;12.254;2023-04-03T16:06:27;4.63;;;2.75;;
5787;SDS011;2920;48.158;12.254;2023-04-03T16:08:55;3.83;;;1.67;;
5787;SDS011;2920;48.158;12.254;2023-04-03T16:11:22;3.35;;;1.80;;
5787;SDS011;2920;48.158;12.254;2023-04-03T16:13:48;2.83;;;2.08;;
5787;SDS011;2920;48.158;12.254;2023-04-03T16:16:14;4.72;;;1.92;;
5787;SDS011;2920;48.158;12.254;2023-04-03T16:18:39;8.55;;;1.63;;
5787;SDS011;2920;48.158;12.254;2023-04-03T16:21:05;2.60;;;1.50;;
5787;SDS011;2920;48.158;12.254;2023-04-03T16:23:31;3.83;;;1.73;;
5787;SDS011;2920;48.158;12.254;2023-04-03T16:25:56;1.50;;;1.33;;
5787;SDS011;2920;48.158;12.254;2023-04-03T16:28:22;3.38;;;1.92;;
5787;SDS011;2920;48.158;12.254;2023-04-03T16:30:47;1.52;;;1.20;;
5787;SDS011;2920;48.158;12.254;2023-04-03T16:33:14;2.10;;;1.20;;
5787;SDS011;2920;48.158;12.254;2023-04-03T16:35:39;2.38;;;1.58;;
5787;SDS011;2920;48.158;12.254;2023-04-03T16:38:06;2.97;;;1.40;;
5787;SDS011;2920;48.158;12.254;2023-04-03T16:40:32;2.38;;;1.58;;
5787;SDS011;2920;48.158;12.254;2023-04-03T16:42:58;2.95;;;1.50;;
5787;SDS011;2920;48.158;12.254;2023-04-03T16:45:25;3.70;;;1.52;;
5787;SDS011;2920;48.158;12.254;2023-04-03T16:47:51;2.13;;;1.23;;
5787;SDS011;2920;48.158;12.254;2023-04-03T16:50:16;2.03;;;1.33;;
5787;SDS011;2920;48.158;12.254;2023-04-03T16:52:41;5.85;;;3.47;;
5787;SDS011;2920;48.158;12.254;2023-04-03T16:55:07;3.03;;;1.27;;
5787;SDS011;2920;48.158;12.254;2023-04-03T16:57:32;2.45;;;1.30;;
5787;SDS011;2920;48.158;12.254;2023-04-03T16:59:58;1.95;;;1.23;;
5787;SDS011;2920;48.158;12.254;2023-04-03T17:02:23;2.55;;;1.65;;
5787;SDS011;2920;48.158;12.254;2023-04-03T17:04:52;3.63;;;2.27;;
5787;SDS011;2920;48.158;12.254;2023-04-03T17:07:22;2.15;;;1.52;;